sensor_id;sensor_type;location;lat;lon;timestamp;P1;durP1;ratioP1;P2;durP2;ratioP2
2123;SDS011;1068;52.460;13.528;2023-05-07T00:00:20;11.83;;;10.77;;
2123;SDS011;1068;52.460;13.528;2023-05-07T00:02:49;12.57;;;11.13;;
2123;SDS011;1068;52.460;13.528;2023-05-07T00:05:16;13.40;;;11.97;;
2123;SDS011;1068;52.460;13.528;2023-05-07T00:07:43;12.57;;;11.20;;
2123;SDS011;1068;52.460;13.528;2023-05-07T00:10:10;12.90;;;11.60;;
2123;SDS011;1068;52.460;13.528;2023-05-07T00:12:37;14.83;;;11.17;;
2123;SDS011;1068;52.460;13.528;2023-05-07T00:15:05;12.10;;;10.97;;
2123;SDS011;1068;52.460;13.528;2023-05-07T00:17:32;12.53;;;10.60;;
2123;SDS011;1068;52.460;13.528;2023-05-07T00:20:00;13.17;;;11.87;;
2123;SDS011;1068;52.460;13.528;2023-05-07T00:22:28;19.67;;;11.60;;
2123;SDS011;1068;52.460;13.528;2023-05-07T00:24:55;14.90;;;11.80;;
2123;SDS011;1068;52.460;13.528;2023-05-07T00:27:22;11.47;;;10.37;;
2123;SDS011;1068;52.460;13.528;2023-05-07T00:29:49;12.13;;;10.83;;
2123;SDS011;1068;52.460;13.528;2023-05-07T00:32:16;11.50;;;10.50;;
2123;SDS011;1068;52.460;13.528;2023-05-07T00:34:43;11.23;;;10.00;;
2123;SDS011;1068;52.460;13.528;2023-05-07T00:37:11;11.10;;;10.17;;
2123;SDS011;1068;52.460;13.528;2023-05-07T00:39:38;11.87;;;10.00;;
2123;SDS011;1068;52.460;13.528;2023-05-07T00:42:05;11.90;;;10.70;;
2123;SDS011;1068;52.460;13.528;2023-05-07T00:44:33;10.17;;;9.17;;
2123;SDS011;1068;52.460;13.528;2023-05-07T00:47:00;10.87;;;9.77;;
2123;SDS011;1068;52.460;13.528;2023-05-07T00:49:30;10.73;;;9.70;;
2123;SDS011;1068;52.460;13.528;2023-05-07T00:51:59;11.13;;;10.03;;
2123;SDS011;1068;52.460;13.528;2023-05-07T00:54:27;12.90;;;10.40;;
2123;SDS011;1068;52.460;13.528;2023-05-07T00:56:54;11.73;;;10.40;;
2123;SDS011;1068;52.460;13.528;2023-05-07T00:59:21;13.10;;;11.50;;
2123;SDS011;1068;52.460;13.528;2023-05-07T01:01:48;11.20;;;10.00;;
2123;SDS011;1068;52.460;13.528;2023-05-07T01:04:15;12.40;;;11.20;;
2123;SDS011;1068;52.460;13.528;2023-05-07T01:06:42;16.47;;;12.27;;
2123;SDS011;1068;52.460;13.528;2023-05-07T01:09:11;12.73;;;11.43;;
2123;SDS011;1068;52.460;13.528;2023-05-07T01:11:40;11.70;;;10.50;;
2123;SDS011;1068;52.460;13.528;2023-05-07T01:14:07;10.80;;;9.70;;
2123;SDS011;1068;52.460;13.528;2023-05-07T01:16:36;11.17;;;10.17;;
2123;SDS011;1068;52.460;13.528;2023-05-07T01:19:03;12.00;;;10.63;;
2123;SDS011;1068;52.460;13.528;2023-05-07T01:21:31;11.90;;;10.73;;
2123;SDS011;1068;52.460;13.528;2023-05-07T01:24:01;11.63;;;10.50;;
2123;SDS011;1068;52.460;13.528;2023-05-07T01:26:28;11.97;;;10.73;;
2123;SDS011;1068;52.460;13.528;2023-05-07T01:28:55;12.80;;;10.60;;
2123;SDS011;1068;52.460;13.528;2023-05-07T01:31:22;10.03;;;9.00;;
2123;SDS011;1068;52.460;13.528;2023-05-07T01:33:50;12.30;;;11.10;;
2123;SDS011;1068;52.460;13.528;2023-05-07T01:36:18;12.40;;;10.37;;
2123;SDS011;1068;52.460;13.528;2023-05-07T01:38:47;14.00;;;11.20;;
2123;SDS011;1068;52.460;13.528;2023-05-07T01:41:16;12.13;;;10.90;;
2123;SDS011;1068;52.460;13.528;2023-05-07T01:43:43;12.30;;;11.07;;
2123;SDS011;1068;52.460;13.528;2023-05-07T01:46:10;12.17;;;10.80;;
2123;SDS011;1068;52.460;13.528;2023-05-07T01:48:37;12.63;;;11.33;;
2123;SDS011;1068;52.460;13.528;2023-05-07T01:51:05;11.60;;;10.60;;
2123;SDS011;1068;52.460;13.528;2023-05-07T01:53:35;12.50;;;11.20;;
2123;SDS011;1068;52.460;13.528;2023-05-07T01:56:02;12.30;;;11.20;;
2123;SDS011;1068;52.460;13.528;2023-05-07T01:58:30;13.77;;;12.37;;
2123;SDS011;1068;52.460;13.528;2023-05-07T02:00:57;13.23;;;11.70;;
2123;SDS011;1068;52.460;13.528;2023-05-07T02:03:24;12.73;;;11.60;;
2123;SDS011;1068;52.460;13.528;2023-05-07T02:05:51;14.50;;;12.30;;
2123;SDS011;1068;52.460;13.528;2023-05-07T02:08:18;12.07;;;10.87;;
2123;SDS011;1068;52.460;13.528;2023-05-07T02:10:45;13.47;;;11.70;;
2123;SDS011;1068;52.460;13.528;2023-05-07T02:13:12;10.93;;;9.97;;
2123;SDS011;1068;52.460;13.528;2023-05-07T02:15:40;13.80;;;11.67;;
2123;SDS011;1068;52.460;13.528;2023-05-07T02:18:08;11.50;;;10.30;;
2123;SDS011;1068;52.460;13.528;2023-05-07T02:20:35;13.57;;;12.17;;
2123;SDS011;1068;52.460;13.528;2023-05-07T02:23:02;12.43;;;11.17;;
2123;SDS011;1068;52.460;13.528;2023-05-07T02:25:29;14.13;;;11.57;;
2123;SDS011;1068;52.460;13.528;2023-05-07T02:27:56;12.20;;;10.90;;
2123;SDS011;1068;52.460;13.528;2023-05-07T02:30:24;13.40;;;12.10;;
2123;SDS011;1068;52.460;13.528;2023-05-07T02:32:52;14.60;;;12.40;;
2123;SDS011;1068;52.460;13.528;2023-05-07T02:35:19;12.50;;;11.07;;
2123;SDS011;1068;52.460;13.528;2023-05-07T02:37:46;11.37;;;10.30;;
2123;SDS011;1068;52.460;13.528;2023-05-07T02:40:13;12.30;;;11.20;;
2123;SDS011;1068;52.460;13.528;2023-05-07T02:42:40;12.23;;;11.00;;
2123;SDS011;1068;52.460;13.528;2023-05-07T02:45:07;19.40;;;11.37;;
2123;SDS011;1068;52.460;13.528;2023-05-07T02:47:34;12.50;;;11.17;;
2123;SDS011;1068;52.460;13.528;2023-05-07T02:50:03;13.30;;;11.83;;
2123;SDS011;1068;52.460;13.528;2023-05-07T02:52:30;12.40;;;11.20;;
2123;SDS011;1068;52.460;13.528;2023-05-07T02:54:56;15.30;;;11.53;;
2123;SDS011;1068;52.460;13.528;2023-05-07T02:57:23;13.80;;;12.00;;
2123;SDS011;1068;52.460;13.528;2023-05-07T02:59:50;12.03;;;10.83;;
2123;SDS011;1068;52.460;13.528;2023-05-07T03:02:17;17.30;;;11.87;;
2123;SDS011;1068;52.460;13.528;2023-05-07T03:04:45;12.90;;;11.30;;
2123;SDS011;1068;52.460;13.528;2023-05-07T03:07:13;13.60;;;12.30;;
2123;SDS011;1068;52.460;13.528;2023-05-07T03:09:40;14.00;;;12.30;;
2123;SDS011;1068;52.460;13.528;2023-05-07T03:12:07;15.07;;;10.60;;
2123;SDS011;1068;52.460;13.528;2023-05-07T03:14:34;12.60;;;11.47;;
2123;SDS011;1068;52.460;13.528;2023-05-07T03:17:01;13.50;;;12.10;;
2123;SDS011;1068;52.460;13.528;2023-05-07T03:19:28;13.60;;;12.20;;
2123;SDS011;1068;52.460;13.528;2023-05-07T03:21:55;12.77;;;11.37;;
2123;SDS011;1068;52.460;13.528;2023-05-07T03:24:23;11.60;;;10.60;;
2123;SDS011;1068;52.460;13.528;2023-05-07T03:26:50;11.70;;;10.70;;
2123;SDS011;1068;52.460;13.528;2023-05-07T03:29:17;11.67;;;10.50;;
2123;SDS011;1068;52.460;13.528;2023-05-07T03:31:44;12.50;;;11.40;;
2123;SDS011;1068;52.460;13.528;2023-05-07T03:34:11;12.77;;;10.60;;
2123;SDS011;1068;52.460;13.528;2023-05-07T03:36:38;12.97;;;10.83;;
2123;SDS011;1068;52.460;13.528;2023-05-07T03:39:05;13.00;;;11.37;;
2123;SDS011;1068;52.460;13.528;2023-05-07T03:41:33;10.87;;;9.80;;
2123;SDS011;1068;52.460;13.528;2023-05-07T03:44:00;13.97;;;10.60;;
2123;SDS011;1068;52.460;13.528;2023-05-07T03:46:27;11.83;;;10.70;;
2123;SDS011;1068;52.460;13.528;2023-05-07T03:48:54;10.60;;;9.60;;
2123;SDS011;1068;52.460;13.528;2023-05-07T03:51:21;11.50;;;10.33;;
2123;SDS011;1068;52.460;13.528;2023-05-07T03:53:48;10.87;;;9.87;;
2123;SDS011;1068;52.460;13.528;2023-05-07T03:56:17;10.77;;;9.73;;
2123;SDS011;1068;52.460;13.528;2023-05-07T03:58:46;11.57;;;10.43;;
2123;SDS011;1068;52.460;13.528;2023-05-07T04:01:13;14.00;;;10.10;;
2123;SDS011;1068;52.460;13.528;2023-05-07T04:03:40;11.00;;;9.43;;
2123;SDS011;1068;52.460;13.528;2023-05-07T04:06:07;12.77;;;11.47;;
2123;SDS011;1068;52.460;13.528;2023-05-07T04:08:35;11.40;;;9.87;;
2123;SDS011;1068;52.460;13.528;2023-05-07T04:11:02;11.33;;;10.20;;
2123;SDS011;1068;52.460;13.528;2023-05-07T04:13:29;12.43;;;11.00;;
2123;SDS011;1068;52.460;13.528;2023-05-07T04:15:57;11.10;;;10.10;;
2123;SDS011;1068;52.460;13.528;2023-05-07T04:18:24;11.67;;;10.47;;
2123;SDS011;1068;52.460;13.528;2023-05-07T04:20:51;10.63;;;9.63;;
2123;SDS011;1068;52.460;13.528;2023-05-07T04:23:18;13.33;;;10.83;;
2123;SDS011;1068;52.460;13.528;2023-05-07T04:25:45;11.27;;;10.17;;
2123;SDS011;1068;52.460;13.528;2023-05-07T04:28:12;10.73;;;9.73;;
2123;SDS011;1068;52.460;13.528;2023-05-07T04:30:39;11.37;;;9.33;;
2123;SDS011;1068;52.460;13.528;2023-05-07T04:33:07;11.70;;;9.43;;
2123;SDS011;1068;52.460;13.528;2023-05-07T04:35:35;10.47;;;9.57;;
2123;SDS011;1068;52.460;13.528;2023-05-07T04:38:02;10.50;;;9.50;;
2123;SDS011;1068;52.460;13.528;2023-05-07T04:40:29;14.60;;;10.40;;
2123;SDS011;1068;52.460;13.528;2023-05-07T04:42:56;9.80;;;8.90;;
2123;SDS011;1068;52.460;13.528;2023-05-07T04:45:23;9.37;;;8.47;;
2123;SDS011;1068;52.460;13.528;2023-05-07T04:47:50;10.20;;;8.87;;
2123;SDS011;1068;52.460;13.528;2023-05-07T04:50:18;9.97;;;8.97;;
2123;SDS011;1068;52.460;13.528;2023-05-07T04:52:45;13.67;;;9.30;;
2123;SDS011;1068;52.460;13.528;2023-05-07T04:55:12;10.60;;;9.60;;
2123;SDS011;1068;52.460;13.528;2023-05-07T04:57:39;10.53;;;9.53;;
2123;SDS011;1068;52.460;13.528;2023-05-07T05:00:06;10.73;;;9.73;;
2123;SDS011;1068;52.460;13.528;2023-05-07T05:02:34;11.37;;;10.20;;
2123;SDS011;1068;52.460;13.528;2023-05-07T05:05:01;10.20;;;9.20;;
2123;SDS011;1068;52.460;13.528;2023-05-07T05:07:29;9.50;;;8.70;;
2123;SDS011;1068;52.460;13.528;2023-05-07T05:09:56;11.20;;;8.60;;
2123;SDS011;1068;52.460;13.528;2023-05-07T05:12:23;9.90;;;8.90;;
2123;SDS011;1068;52.460;13.528;2023-05-07T05:14:50;9.83;;;8.07;;
2123;SDS011;1068;52.460;13.528;2023-05-07T05:17:17;8.40;;;7.60;;
2123;SDS011;1068;52.460;13.528;2023-05-07T05:19:44;9.43;;;8.57;;
2123;SDS011;1068;52.460;13.528;2023-05-07T05:22:11;8.90;;;8.10;;
2123;SDS011;1068;52.460;13.528;2023-05-07T05:24:39;14.10;;;8.60;;
2123;SDS011;1068;52.460;13.528;2023-05-07T05:27:06;9.00;;;8.20;;
2123;SDS011;1068;52.460;13.528;2023-05-07T05:29:33;10.20;;;9.20;;
2123;SDS011;1068;52.460;13.528;2023-05-07T05:32:00;10.43;;;9.10;;
2123;SDS011;1068;52.460;13.528;2023-05-07T05:34:26;11.47;;;8.13;;
2123;SDS011;1068;52.460;13.528;2023-05-07T05:36:53;8.50;;;7.67;;
2123;SDS011;1068;52.460;13.528;2023-05-07T05:39:21;9.63;;;8.73;;
2123;SDS011;1068;52.460;13.528;2023-05-07T05:41:49;10.83;;;7.73;;
2123;SDS011;1068;52.460;13.528;2023-05-07T05:44:16;9.73;;;7.97;;
2123;SDS011;1068;52.460;13.528;2023-05-07T05:46:43;8.70;;;7.80;;
2123;SDS011;1068;52.460;13.528;2023-05-07T05:49:10;7.93;;;7.23;;
2123;SDS011;1068;52.460;13.528;2023-05-07T05:51:37;9.43;;;8.53;;
2123;SDS011;1068;52.460;13.528;2023-05-07T05:54:04;8.63;;;7.93;;
2123;SDS011;1068;52.460;13.528;2023-05-07T05:56:31;9.80;;;8.80;;
2123;SDS011;1068;52.460;13.528;2023-05-07T05:58:59;9.03;;;8.17;;
2123;SDS011;1068;52.460;13.528;2023-05-07T06:01:26;8.73;;;8.00;;
2123;SDS011;1068;52.460;13.528;2023-05-07T06:03:53;8.23;;;7.47;;
2123;SDS011;1068;52.460;13.528;2023-05-07T06:06:20;8.03;;;7.23;;
2123;SDS011;1068;52.460;13.528;2023-05-07T06:08:47;8.10;;;7.40;;
2123;SDS011;1068;52.460;13.528;2023-05-07T06:11:14;10.80;;;8.00;;
2123;SDS011;1068;52.460;13.528;2023-05-07T06:13:41;8.63;;;7.73;;
2123;SDS011;1068;52.460;13.528;2023-05-07T06:16:09;7.93;;;7.33;;
2123;SDS011;1068;52.460;13.528;2023-05-07T06:18:36;8.50;;;7.70;;
2123;SDS011;1068;52.460;13.528;2023-05-07T06:21:03;9.07;;;8.17;;
2123;SDS011;1068;52.460;13.528;2023-05-07T06:23:30;9.07;;;8.20;;
2123;SDS011;1068;52.460;13.528;2023-05-07T06:25:57;9.70;;;8.80;;
2123;SDS011;1068;52.460;13.528;2023-05-07T06:28:24;10.50;;;8.20;;
2123;SDS011;1068;52.460;13.528;2023-05-07T06:30:51;10.23;;;8.47;;
2123;SDS011;1068;52.460;13.528;2023-05-07T06:33:19;8.53;;;7.30;;
2123;SDS011;1068;52.460;13.528;2023-05-07T06:35:46;8.37;;;7.57;;
2123;SDS011;1068;52.460;13.528;2023-05-07T06:38:13;9.57;;;7.23;;
2123;SDS011;1068;52.460;13.528;2023-05-07T06:40:40;7.70;;;6.90;;
2123;SDS011;1068;52.460;13.528;2023-05-07T06:43:07;8.33;;;7.20;;
2123;SDS011;1068;52.460;13.528;2023-05-07T06:45:33;7.07;;;6.40;;
2123;SDS011;1068;52.460;13.528;2023-05-07T06:48:01;7.00;;;6.40;;
2123;SDS011;1068;52.460;13.528;2023-05-07T06:50:29;7.93;;;6.50;;
2123;SDS011;1068;52.460;13.528;2023-05-07T06:52:56;6.93;;;6.37;;
2123;SDS011;1068;52.460;13.528;2023-05-07T06:55:23;6.47;;;5.97;;
2123;SDS011;1068;52.460;13.528;2023-05-07T06:57:50;6.27;;;5.67;;
2123;SDS011;1068;52.460;13.528;2023-05-07T07:00:17;6.50;;;6.00;;
2123;SDS011;1068;52.460;13.528;2023-05-07T07:02:44;6.43;;;5.83;;
2123;SDS011;1068;52.460;13.528;2023-05-07T07:05:11;7.20;;;6.50;;
2123;SDS011;1068;52.460;13.528;2023-05-07T07:07:39;5.20;;;4.80;;
2123;SDS011;1068;52.460;13.528;2023-05-07T07:10:06;6.33;;;5.73;;
2123;SDS011;1068;52.460;13.528;2023-05-07T07:12:33;6.40;;;5.80;;
2123;SDS011;1068;52.460;13.528;2023-05-07T07:15:00;8.70;;;5.47;;
2123;SDS011;1068;52.460;13.528;2023-05-07T07:17:27;8.23;;;5.80;;
2123;SDS011;1068;52.460;13.528;2023-05-07T07:19:54;5.83;;;5.33;;
2123;SDS011;1068;52.460;13.528;2023-05-07T07:22:21;5.50;;;5.10;;
2123;SDS011;1068;52.460;13.528;2023-05-07T07:24:49;6.47;;;5.40;;
2123;SDS011;1068;52.460;13.528;2023-05-07T07:27:16;5.50;;;5.00;;
2123;SDS011;1068;52.460;13.528;2023-05-07T07:29:43;5.40;;;4.90;;
2123;SDS011;1068;52.460;13.528;2023-05-07T07:32:10;4.70;;;4.30;;
2123;SDS011;1068;52.460;13.528;2023-05-07T07:34:37;5.33;;;4.93;;
2123;SDS011;1068;52.460;13.528;2023-05-07T07:37:04;5.00;;;4.60;;
2123;SDS011;1068;52.460;13.528;2023-05-07T07:39:31;5.33;;;4.90;;
2123;SDS011;1068;52.460;13.528;2023-05-07T07:41:59;4.93;;;4.40;;
2123;SDS011;1068;52.460;13.528;2023-05-07T07:46:53;5.10;;;4.70;;
2123;SDS011;1068;52.460;13.528;2023-05-07T07:49:20;4.70;;;4.30;;
2123;SDS011;1068;52.460;13.528;2023-05-07T07:51:47;5.30;;;4.80;;
2123;SDS011;1068;52.460;13.528;2023-05-07T07:54:14;4.90;;;4.50;;
2123;SDS011;1068;52.460;13.528;2023-05-07T07:56:41;4.83;;;4.43;;
2123;SDS011;1068;52.460;13.528;2023-05-07T07:59:09;5.13;;;4.10;;
2123;SDS011;1068;52.460;13.528;2023-05-07T08:01:36;3.73;;;3.43;;
2123;SDS011;1068;52.460;13.528;2023-05-07T08:04:03;5.07;;;4.10;;
2123;SDS011;1068;52.460;13.528;2023-05-07T08:06:30;4.60;;;4.03;;
2123;SDS011;1068;52.460;13.528;2023-05-07T08:08:57;4.17;;;3.80;;
2123;SDS011;1068;52.460;13.528;2023-05-07T08:11:24;5.70;;;5.20;;
2123;SDS011;1068;52.460;13.528;2023-05-07T08:13:51;3.40;;;3.10;;
2123;SDS011;1068;52.460;13.528;2023-05-07T08:16:19;3.47;;;3.23;;
2123;SDS011;1068;52.460;13.528;2023-05-07T08:18:46;3.63;;;3.33;;
2123;SDS011;1068;52.460;13.528;2023-05-07T08:21:13;3.53;;;3.10;;
2123;SDS011;1068;52.460;13.528;2023-05-07T08:23:40;2.90;;;2.63;;
2123;SDS011;1068;52.460;13.528;2023-05-07T08:26:07;2.90;;;2.70;;
2123;SDS011;1068;52.460;13.528;2023-05-07T08:28:34;4.57;;;3.17;;
2123;SDS011;1068;52.460;13.528;2023-05-07T08:31:01;3.17;;;2.97;;
2123;SDS011;1068;52.460;13.528;2023-05-07T08:33:29;4.93;;;4.07;;
2123;SDS011;1068;52.460;13.528;2023-05-07T08:35:56;2.60;;;2.40;;
2123;SDS011;1068;52.460;13.528;2023-05-07T08:38:23;2.80;;;2.33;;
2123;SDS011;1068;52.460;13.528;2023-05-07T08:40:50;2.67;;;2.50;;
2123;SDS011;1068;52.460;13.528;2023-05-07T08:43:17;4.03;;;3.30;;
2123;SDS011;1068;52.460;13.528;2023-05-07T08:45:45;3.93;;;2.73;;
2123;SDS011;1068;52.460;13.528;2023-05-07T08:48:14;2.77;;;2.50;;
2123;SDS011;1068;52.460;13.528;2023-05-07T08:50:43;4.23;;;2.70;;
2123;SDS011;1068;52.460;13.528;2023-05-07T08:53:09;2.80;;;2.60;;
2123;SDS011;1068;52.460;13.528;2023-05-07T08:55:37;4.17;;;2.90;;
2123;SDS011;1068;52.460;13.528;2023-05-07T08:58:04;6.00;;;2.70;;
2123;SDS011;1068;52.460;13.528;2023-05-07T09:00:31;4.53;;;2.70;;
2123;SDS011;1068;52.460;13.528;2023-05-07T09:02:59;2.80;;;2.60;;
2123;SDS011;1068;52.460;13.528;2023-05-07T09:05:26;2.43;;;2.07;;
2123;SDS011;1068;52.460;13.528;2023-05-07T09:07:55;2.33;;;2.13;;
2123;SDS011;1068;52.460;13.528;2023-05-07T09:10:21;2.30;;;2.20;;
2123;SDS011;1068;52.460;13.528;2023-05-07T09:12:48;2.97;;;2.53;;
2123;SDS011;1068;52.460;13.528;2023-05-07T09:15:15;2.70;;;2.50;;
2123;SDS011;1068;52.460;13.528;2023-05-07T09:17:42;3.20;;;3.00;;
2123;SDS011;1068;52.460;13.528;2023-05-07T09:20:10;2.63;;;2.43;;
2123;SDS011;1068;52.460;13.528;2023-05-07T09:22:37;3.93;;;3.33;;
2123;SDS011;1068;52.460;13.528;2023-05-07T09:25:06;3.00;;;2.53;;
2123;SDS011;1068;52.460;13.528;2023-05-07T09:27:33;5.63;;;2.90;;
2123;SDS011;1068;52.460;13.528;2023-05-07T09:30:02;2.57;;;2.37;;
2123;SDS011;1068;52.460;13.528;2023-05-07T09:32:29;3.13;;;2.87;;
2123;SDS011;1068;52.460;13.528;2023-05-07T09:34:56;2.40;;;2.20;;
2123;SDS011;1068;52.460;13.528;2023-05-07T09:37:23;2.93;;;2.20;;
2123;SDS011;1068;52.460;13.528;2023-05-07T09:39:52;3.83;;;2.50;;
2123;SDS011;1068;52.460;13.528;2023-05-07T09:42:23;2.43;;;1.93;;
2123;SDS011;1068;52.460;13.528;2023-05-07T09:44:51;1.90;;;1.80;;
2123;SDS011;1068;52.460;13.528;2023-05-07T09:47:19;1.93;;;1.73;;
2123;SDS011;1068;52.460;13.528;2023-05-07T09:49:47;1.93;;;1.83;;
2123;SDS011;1068;52.460;13.528;2023-05-07T09:52:14;1.83;;;1.73;;
2123;SDS011;1068;52.460;13.528;2023-05-07T09:54:41;2.33;;;2.13;;
2123;SDS011;1068;52.460;13.528;2023-05-07T09:57:09;2.13;;;2.03;;
2123;SDS011;1068;52.460;13.528;2023-05-07T09:59:39;1.70;;;1.60;;
2123;SDS011;1068;52.460;13.528;2023-05-07T10:02:07;1.60;;;1.50;;
2123;SDS011;1068;52.460;13.528;2023-05-07T10:04:36;2.07;;;1.70;;
2123;SDS011;1068;52.460;13.528;2023-05-07T10:07:03;1.80;;;1.70;;
2123;SDS011;1068;52.460;13.528;2023-05-07T10:09:31;1.50;;;1.40;;
2123;SDS011;1068;52.460;13.528;2023-05-07T10:11:59;2.57;;;1.70;;
2123;SDS011;1068;52.460;13.528;2023-05-07T10:14:26;1.67;;;1.57;;
2123;SDS011;1068;52.460;13.528;2023-05-07T10:16:56;3.23;;;1.60;;
2123;SDS011;1068;52.460;13.528;2023-05-07T10:19:23;1.70;;;1.60;;
2123;SDS011;1068;52.460;13.528;2023-05-07T10:21:51;1.93;;;1.80;;
2123;SDS011;1068;52.460;13.528;2023-05-07T10:24:22;1.70;;;1.43;;
2123;SDS011;1068;52.460;13.528;2023-05-07T10:26:52;2.03;;;1.80;;
2123;SDS011;1068;52.460;13.528;2023-05-07T10:29:21;2.00;;;1.90;;
2123;SDS011;1068;52.460;13.528;2023-05-07T10:31:54;1.93;;;1.57;;
2123;SDS011;1068;52.460;13.528;2023-05-07T10:34:24;3.57;;;1.70;;
2123;SDS011;1068;52.460;13.528;2023-05-07T10:36:52;2.43;;;1.93;;
2123;SDS011;1068;52.460;13.528;2023-05-07T10:39:20;6.70;;;2.10;;
2123;SDS011;1068;52.460;13.528;2023-05-07T10:41:47;5.93;;;1.80;;
2123;SDS011;1068;52.460;13.528;2023-05-07T10:44:24;3.07;;;1.97;;
2123;SDS011;1068;52.460;13.528;2023-05-07T10:47:05;2.70;;;2.27;;
2123;SDS011;1068;52.460;13.528;2023-05-07T10:49:35;1.77;;;1.67;;
2123;SDS011;1068;52.460;13.528;2023-05-07T10:52:11;1.70;;;1.60;;
2123;SDS011;1068;52.460;13.528;2023-05-07T10:54:39;1.70;;;1.60;;
2123;SDS011;1068;52.460;13.528;2023-05-07T10:59:52;2.27;;;1.77;;
2123;SDS011;1068;52.460;13.528;2023-05-07T11:02:19;1.90;;;1.80;;
2123;SDS011;1068;52.460;13.528;2023-05-07T11:04:47;1.83;;;1.73;;
2123;SDS011;1068;52.460;13.528;2023-05-07T11:07:35;2.03;;;1.93;;
2123;SDS011;1068;52.460;13.528;2023-05-07T11:10:03;1.70;;;1.60;;
2123;SDS011;1068;52.460;13.528;2023-05-07T11:12:49;1.60;;;1.50;;
2123;SDS011;1068;52.460;13.528;2023-05-07T11:17:58;1.80;;;1.70;;
2123;SDS011;1068;52.460;13.528;2023-05-07T11:23:12;3.30;;;1.63;;
2123;SDS011;1068;52.460;13.528;2023-05-07T11:25:58;1.83;;;1.50;;
2123;SDS011;1068;52.460;13.528;2023-05-07T11:28:25;1.63;;;1.53;;
2123;SDS011;1068;52.460;13.528;2023-05-07T11:30:52;1.80;;;1.70;;
2123;SDS011;1068;52.460;13.528;2023-05-07T11:33:20;2.20;;;1.67;;
2123;SDS011;1068;52.460;13.528;2023-05-07T11:35:47;1.70;;;1.60;;
2123;SDS011;1068;52.460;13.528;2023-05-07T11:38:16;1.87;;;1.77;;
2123;SDS011;1068;52.460;13.528;2023-05-07T11:40:48;1.80;;;1.70;;
2123;SDS011;1068;52.460;13.528;2023-05-07T11:43:16;2.73;;;1.70;;
2123;SDS011;1068;52.460;13.528;2023-05-07T11:45:42;1.60;;;1.40;;
2123;SDS011;1068;52.460;13.528;2023-05-07T11:48:09;1.30;;;1.20;;
2123;SDS011;1068;52.460;13.528;2023-05-07T11:50:36;2.30;;;1.93;;
2123;SDS011;1068;52.460;13.528;2023-05-07T11:53:18;1.30;;;1.20;;
2123;SDS011;1068;52.460;13.528;2023-05-07T11:55:45;1.50;;;1.40;;
2123;SDS011;1068;52.460;13.528;2023-05-07T11:58:12;7.83;;;1.53;;
2123;SDS011;1068;52.460;13.528;2023-05-07T12:00:49;1.40;;;1.30;;
2123;SDS011;1068;52.460;13.528;2023-05-07T12:03:16;1.60;;;1.50;;
2123;SDS011;1068;52.460;13.528;2023-05-07T12:05:43;1.40;;;1.30;;
2123;SDS011;1068;52.460;13.528;2023-05-07T12:08:13;1.73;;;1.50;;
2123;SDS011;1068;52.460;13.528;2023-05-07T12:10:42;3.23;;;1.60;;
2123;SDS011;1068;52.460;13.528;2023-05-07T12:13:13;3.00;;;1.20;;
2123;SDS011;1068;52.460;13.528;2023-05-07T12:15:41;1.80;;;1.67;;
2123;SDS011;1068;52.460;13.528;2023-05-07T12:18:07;1.87;;;1.77;;
2123;SDS011;1068;52.460;13.528;2023-05-07T12:20:34;1.57;;;1.47;;
2123;SDS011;1068;52.460;13.528;2023-05-07T12:23:02;2.00;;;1.20;;
2123;SDS011;1068;52.460;13.528;2023-05-07T12:25:29;3.77;;;2.37;;
2123;SDS011;1068;52.460;13.528;2023-05-07T12:27:58;1.50;;;1.40;;
2123;SDS011;1068;52.460;13.528;2023-05-07T12:30:27;1.50;;;1.40;;
2123;SDS011;1068;52.460;13.528;2023-05-07T12:32:54;1.97;;;1.17;;
2123;SDS011;1068;52.460;13.528;2023-05-07T12:35:26;4.10;;;1.13;;
2123;SDS011;1068;52.460;13.528;2023-05-07T12:37:56;1.30;;;1.20;;
2123;SDS011;1068;52.460;13.528;2023-05-07T12:40:24;1.37;;;1.27;;
2123;SDS011;1068;52.460;13.528;2023-05-07T12:42:52;1.97;;;1.17;;
2123;SDS011;1068;52.460;13.528;2023-05-07T12:45:21;1.20;;;1.10;;
2123;SDS011;1068;52.460;13.528;2023-05-07T12:47:48;2.63;;;1.03;;
2123;SDS011;1068;52.460;13.528;2023-05-07T12:50:15;1.40;;;1.10;;
2123;SDS011;1068;52.460;13.528;2023-05-07T12:52:43;1.40;;;1.10;;
2123;SDS011;1068;52.460;13.528;2023-05-07T12:55:12;2.37;;;1.33;;
2123;SDS011;1068;52.460;13.528;2023-05-07T12:57:39;1.50;;;1.40;;
2123;SDS011;1068;52.460;13.528;2023-05-07T13:00:06;1.40;;;1.30;;
2123;SDS011;1068;52.460;13.528;2023-05-07T13:02:37;2.07;;;1.23;;
2123;SDS011;1068;52.460;13.528;2023-05-07T13:05:04;3.37;;;1.40;;
2123;SDS011;1068;52.460;13.528;2023-05-07T13:07:31;1.30;;;1.20;;
2123;SDS011;1068;52.460;13.528;2023-05-07T13:09:58;2.23;;;1.67;;
2123;SDS011;1068;52.460;13.528;2023-05-07T13:12:25;3.27;;;1.43;;
2123;SDS011;1068;52.460;13.528;2023-05-07T13:14:52;1.53;;;1.43;;
2123;SDS011;1068;52.460;13.528;2023-05-07T13:17:18;1.50;;;1.40;;
2123;SDS011;1068;52.460;13.528;2023-05-07T13:19:47;2.40;;;1.47;;
2123;SDS011;1068;52.460;13.528;2023-05-07T13:22:14;2.13;;;1.40;;
2123;SDS011;1068;52.460;13.528;2023-05-07T13:24:40;3.43;;;1.50;;
2123;SDS011;1068;52.460;13.528;2023-05-07T13:27:08;3.57;;;1.50;;
2123;SDS011;1068;52.460;13.528;2023-05-07T13:29:35;4.50;;;1.30;;
2123;SDS011;1068;52.460;13.528;2023-05-07T13:32:02;1.60;;;1.50;;
2123;SDS011;1068;52.460;13.528;2023-05-07T13:34:29;1.87;;;1.20;;
2123;SDS011;1068;52.460;13.528;2023-05-07T13:36:57;1.40;;;1.30;;
2123;SDS011;1068;52.460;13.528;2023-05-07T13:39:24;1.80;;;1.70;;
2123;SDS011;1068;52.460;13.528;2023-05-07T13:41:51;1.30;;;1.10;;
2123;SDS011;1068;52.460;13.528;2023-05-07T13:44:18;4.30;;;1.30;;
2123;SDS011;1068;52.460;13.528;2023-05-07T13:46:45;1.87;;;1.70;;
2123;SDS011;1068;52.460;13.528;2023-05-07T13:49:12;3.63;;;1.60;;
2123;SDS011;1068;52.460;13.528;2023-05-07T13:51:39;3.83;;;1.37;;
2123;SDS011;1068;52.460;13.528;2023-05-07T13:54:07;1.50;;;1.20;;
2123;SDS011;1068;52.460;13.528;2023-05-07T13:56:34;1.60;;;1.50;;
2123;SDS011;1068;52.460;13.528;2023-05-07T13:59:01;1.90;;;1.60;;
2123;SDS011;1068;52.460;13.528;2023-05-07T14:01:28;2.07;;;1.50;;
2123;SDS011;1068;52.460;13.528;2023-05-07T14:03:55;1.60;;;1.50;;
2123;SDS011;1068;52.460;13.528;2023-05-07T14:06:24;1.47;;;1.20;;
2123;SDS011;1068;52.460;13.528;2023-05-07T14:08:51;1.57;;;1.47;;
2123;SDS011;1068;52.460;13.528;2023-05-07T14:11:19;1.40;;;1.30;;
2123;SDS011;1068;52.460;13.528;2023-05-07T14:13:46;1.30;;;1.20;;
2123;SDS011;1068;52.460;13.528;2023-05-07T14:16:13;1.60;;;1.30;;
2123;SDS011;1068;52.460;13.528;2023-05-07T14:18:40;1.77;;;1.67;;
2123;SDS011;1068;52.460;13.528;2023-05-07T14:21:07;1.43;;;1.33;;
2123;SDS011;1068;52.460;13.528;2023-05-07T14:23:35;1.30;;;1.20;;
2123;SDS011;1068;52.460;13.528;2023-05-07T14:26:02;2.67;;;1.50;;
2123;SDS011;1068;52.460;13.528;2023-05-07T14:28:30;1.73;;;1.20;;
2123;SDS011;1068;52.460;13.528;2023-05-07T14:30:57;1.67;;;1.30;;
2123;SDS011;1068;52.460;13.528;2023-05-07T14:33:24;2.10;;;1.20;;
2123;SDS011;1068;52.460;13.528;2023-05-07T14:35:51;1.37;;;1.27;;
2123;SDS011;1068;52.460;13.528;2023-05-07T14:38:18;2.40;;;1.10;;
2123;SDS011;1068;52.460;13.528;2023-05-07T14:40:45;3.60;;;1.80;;
2123;SDS011;1068;52.460;13.528;2023-05-07T14:43:12;2.57;;;1.20;;
2123;SDS011;1068;52.460;13.528;2023-05-07T14:45:40;1.70;;;1.60;;
2123;SDS011;1068;52.460;13.528;2023-05-07T14:48:07;1.20;;;1.10;;
2123;SDS011;1068;52.460;13.528;2023-05-07T14:50:39;2.40;;;1.30;;
2123;SDS011;1068;52.460;13.528;2023-05-07T14:53:06;2.00;;;1.00;;
2123;SDS011;1068;52.460;13.528;2023-05-07T14:55:33;1.53;;;1.40;;
2123;SDS011;1068;52.460;13.528;2023-05-07T14:58:00;1.37;;;1.27;;
2123;SDS011;1068;52.460;13.528;2023-05-07T15:00:28;1.83;;;1.50;;
2123;SDS011;1068;52.460;13.528;2023-05-07T15:02:56;1.30;;;1.20;;
2123;SDS011;1068;52.460;13.528;2023-05-07T15:05:28;1.67;;;1.40;;